White Mountain Summit Weather observations

Data are for 10 minute period ending at time listed.
 Day   Time   Solar   Ave.   Ave.  Ave.  Vector    Max.    Baro.  
  of    of     Rad.   Air    Rel.  Wind   Wind     Wind   Press.  
Year   Day            Temp.  Hum.  Speed  Dir.     Gust           
2014   (PST)   W/m2    F      %     mph   deg.      mph     mb.   
-------------------------------------------------------------------
 325   20:20    0.0    19   90.3    28    274.3    44.7   999.0 
 325   20:30    0.0    20   90.4    29    278.6    51.8   999.0 
 325   20:40    0.0    20   90.3    31    281.2    49.4   999.0 
 325   20:50    0.0    20   90.4    28    278.3    40.0   999.0 
 325   21:00    0.0    20   90.4    28    281.8    37.7   999.0 
 325   21:10    0.0    20   90.3    28    282.0    49.4   999.0 
 325   21:20    0.0    20   90.3    25    277.1    37.7   999.0 
 325   21:30    0.0    20   90.5    28    276.8    37.7   999.0 
 325   21:40    0.0    20   90.7    27    270.3    35.3   999.0 
 325   21:50    0.0    20   90.6    26    276.7    35.3   999.0 
 325   22:00    0.0    20   90.4    25    271.9    35.3   999.0 
 325   22:10    0.0    20   90.5    28    261.3    37.7   999.0 
 325   22:20    0.0    20   90.4    25    206.5    33.0   999.0 
 325   22:30    0.0    20   90.4    24    206.5    30.6   999.0 
 325   22:40    0.0    20   90.4    25    206.5    33.0   999.0 
 325   22:50    0.0    20   90.4    26    254.1    33.0   999.0 
 325   23:00    0.0    20   90.3    28    272.3    35.3   999.0 
 325   23:10    0.0    20   90.3    33    268.8    40.0   999.0 
 325   23:20    0.0    20   90.3    33    271.9    42.4   999.0 
 325   23:30    0.0    20   90.4    27    274.0    35.3   999.0 
 325   23:40    0.0    20   90.4    26    282.0    33.0   999.0 
 325   23:50    0.0    20   90.4    31    279.1    40.0   999.0 
 326    0:00    0.0    20   90.4    28    277.3    40.0   999.0 
 326    0:10    0.0    20   90.3    27    271.7    37.7   999.0 
 326    0:20    0.0    20   90.3    22    269.4    28.2   999.0 
 326    0:30    0.0    20   90.5    19    275.5    23.5   999.0 
 326    0:40    0.0    20   90.3    24    275.3    28.2   999.0 
 326    0:50    0.0    20   90.3    23    272.2    35.3   999.0 
 326    1:00    0.0    20   90.4    33    269.2    37.7   999.0 
 326    1:10    0.0    19   90.4    30    271.8    35.3   999.0 
 326    1:20    0.0    19   90.4    31    269.4    35.3   999.0 
 326    1:30    0.0    19   90.3    29    272.0    35.3   999.0 
 326    1:40    0.0    19   90.5    33    273.6    40.0   999.0 
 326    1:50    0.0    19   90.5    36    271.4    42.4   999.0 
 326    2:00    0.0    20   90.6    37    266.8    42.4   999.0 
 326    2:10    0.0    21   90.9    33    274.4    42.4   999.0 
 326    2:20    0.0    20   90.6    32    273.2    42.4   999.0 
 326    2:30    0.0    20   90.6    30    273.2    37.7   999.0 
 326    2:40    0.0    20   90.1    28    276.2    37.7   999.0 
 326    2:50    0.0    20   90.3    31    266.9    37.7   999.0 
 326    3:00    0.0    20   90.3    32    270.0    35.3   999.0 
 326    3:10    0.0    20   90.3    32    268.5    40.0   999.0 
 326    3:20    0.0    20   90.5    29    269.4    40.0   999.0 
 326    3:30    0.0    19   90.5    32    265.1    40.0   999.0 
 326    3:40    0.0    19   90.6    32    269.5    40.0   999.0 
 326    3:50    0.0    20   90.9    24    274.2    33.0   999.0 
 326    4:00    0.0    20   90.8    28    271.6    35.3   999.0 
 326    4:10    0.0    19   90.7    29    270.0    35.3   999.0 
 326    4:20    0.0    19   90.6    32    262.0    35.3   999.0 
 326    4:30    0.0    19   90.9    35    263.4    40.0   999.0 
 326    4:40    0.0    19   90.5    34    263.6    37.7   999.0 
 326    4:50    0.0    19   90.7    36    266.2    44.7   999.0 
 326    5:00    0.0    20   90.9    36    264.2    44.7   999.0 
 326    5:10    0.0    20   91.1    40    261.5    44.7   999.0 
 326    5:20    0.0    21   91.1    35    263.4    42.4   999.0 
 326    5:30    0.0    20   91.0    34    261.4    40.0   999.0 
 326    5:40    0.0    20   91.2    37    261.7    44.7   999.0 
 326    5:50    0.0    20   91.1    38    262.8    44.7   999.0 
 326    6:00    0.0    20   91.1    36    265.2    42.4   999.0 
 326    6:10    0.0    20   91.0    29    266.0    35.3   999.0 
 326    6:20    0.0    21   91.3    28    274.4    33.0   999.0 
 326    6:30    0.0    21   91.3    32    271.9    37.7   999.0 
 326    6:40    0.0    21   91.3    32    284.0    37.7   999.0 
 326    6:50    0.0    21   91.3    30    291.5    35.3   999.0 
 326    7:00    0.0    21   91.4    27    272.8    33.0   999.0 
 326    7:10    0.0    22   91.5    27    277.8    33.0   999.0 
 326    7:20    0.0    22   91.5    25    286.2    28.2   999.0 
 326    7:30    0.0    22   91.5    28    267.6    33.0   999.0 
 326    7:40    0.0    22   91.5    26    271.4    30.6   999.0 
 326    7:50    0.0    22   91.4    26    276.9    33.0   999.0 
 326    8:00    0.0    22   91.5    24    299.0    28.2   999.0 
 326    8:10    0.0    22   91.5    25    305.5    30.6   999.0 
 326    8:20    0.0    22   91.5    23    307.7    28.2   999.0 
 326    8:30    0.0    22   91.5    22    307.5    28.2   999.0 
 326    8:40    0.0    22   91.5    26    307.8    33.0   999.0 
 326    8:50    0.0    22   91.6    20    307.9    28.2   999.0 
 326    9:00    0.0    22   91.6    20    308.0    25.9   999.0 
 326    9:10    0.0    22   91.6    24    308.0    28.2   999.0 
 326    9:20    0.0    22   91.6    24    308.0    30.6   999.0 
 326    9:30    0.0    22   91.6    23    307.9    30.6   999.0 
 326    9:40    0.0    22   91.6    25    308.0    28.2   999.0 
 326    9:50    0.0    22   91.6    20    308.1    23.5   999.0 
 326   10:00    0.0    22   91.6     3    308.1    14.1   999.0 
 326   10:10    0.0    22   91.6     0      0.0     0.0   999.0 
 326   10:20    0.0    22   91.6     0      0.0     0.0   999.0 
 326   10:30    0.0    22   91.5     0      0.0     0.0   999.0 
 326   10:40    0.0    22   91.6     0      0.0     0.0   999.0 
 326   10:50    0.0    22   91.6     0      0.0     0.0   999.0 
 326   11:00    0.0    22   91.5     0      0.0     0.0   999.0 
 326   11:10    0.0    22   91.5     0      0.0     0.0   999.0 
 326   11:20    0.0    22   91.5     0      0.0     0.0   999.0 
 326   11:30    0.0    22   91.6     0      0.0     0.0   999.0 
 326   11:40    0.0    22   91.5     0      0.0     0.0   999.0 
 326   11:50    0.0    22   91.5     0      0.0     0.0   999.0 
 326   12:00    0.0    21   91.3     0      0.0     0.0   999.0 
 326   12:10    0.0    21   91.3     0      0.0     0.0   999.0 
 326   12:20    0.0    21   91.4     0      0.0     0.0   999.0 
 326   12:30    0.0    21   91.4     0      0.0     0.0   999.0 
 326   12:40    0.0    21   91.3     0      0.0     0.0   999.0 
 326   12:50    0.0    21   91.3     0      0.0     0.0   999.0 
 326   13:00    0.0    21   91.3     0      0.0     0.0   999.0 
 326   13:10    0.0    21   91.4     0      0.0     0.0   999.0 
 326   13:20    0.0    21   91.4     0      0.0     0.0   999.0 
 326   13:30    0.0    21   91.4     0      0.0     0.0   999.0 
 326   13:40    0.0    20   91.2     0      0.0     0.0   999.0 
 326   13:50    0.0    20   91.2     0      0.0     0.0   999.0 
 326   14:00    0.0    19   90.8     0      0.0     0.0   999.0 
 326   14:10    0.0    19   90.8     0      0.0     0.0   999.0 
 326   14:20    0.0    19   90.9     0      0.0     0.0   999.0 
 326   14:30    0.0    18   90.5     0      0.0     0.0   999.0 
 326   14:40    0.0    18   90.1     0      0.0     0.0   999.0 
 326   14:50    0.0    18   89.9     0      0.0     0.0   999.0 
 326   15:00    0.0    18   89.7     0      0.0     0.0   999.0 
 326   15:10    0.0    18   89.3     0      0.0     0.0   999.0 
 326   15:20    0.0    18   89.6     0      0.0     0.0   999.0 
 326   15:30    0.0    18   89.6     0      0.0     0.0   999.0 
 326   15:40    0.0    18   89.6     0      0.0     0.0   999.0 
 326   15:50    0.0    17   89.9     0      0.0     0.0   999.0 
 326   16:00    0.0    17   90.1     0      0.0     0.0   999.0 
 326   16:10    0.0    17   90.2     0      0.0     0.0   999.0 
 326   16:20    0.0    17   90.0     0      0.0     0.0   999.0 
 326   16:30    0.0    17   90.0     0      0.0     0.0   999.0 
 326   16:40    0.0    16   89.9     0      0.0     0.0   999.0 
 326   16:50    0.0    15   89.5     0      0.0     0.0   999.0 
 326   17:00    0.0    15   89.7     0      0.0     0.0   999.0 
 326   17:10    0.0    14   89.3     0      0.0     0.0   999.0 
 326   17:20    0.0    13   88.8     0      0.0     0.0   999.0 
 326   17:30    0.0    12   88.6     0      0.0     0.0   999.0 
 326   17:40    0.0    12   88.2     0      0.0     0.0   999.0 
 326   17:50    0.0    11   88.2     0      0.0     0.0   999.0 
 326   18:00    0.0    11   88.0     0      0.0     0.0   999.0 
 326   18:10    0.0    11   87.7     0      0.0     0.0   999.0 
 326   18:20    0.0    11   87.7     0      0.0     0.0   999.0 
 326   18:30    0.0    11   87.7     0      0.0     0.0   999.0 
 326   18:40    0.0    11   87.8     0      0.0     0.0   999.0 
 326   18:50    0.0    10   87.7     0      0.0     0.0   999.0 
 326   19:00    0.0    10   87.5     0      0.0     0.0   999.0 
 326   19:10    0.0    10   87.5     0      0.0     0.0   999.0 
 326   19:20    0.0    10   87.8     0      0.0     0.0   999.0 
 326   19:30    0.0     9   87.5     0      0.0     0.0   999.0 
 326   19:40    0.0     9   87.6     0      0.0     0.0   999.0 
 326   19:50    0.0     9   87.9     0      0.0     0.0   999.0 
 326   20:00    0.0     9   87.9     0      0.0     0.0   999.0 
 326   20:10    0.0     8   86.5     0      0.0     0.0   999.0 

Return to White Mountain graphs page.


Western Regional Climate Center,wrcc@dri.edu